Monday, February 18, 2019, 5:24 AM EST
Back to Local

KACY, Atlantic City International

Location: Absecon, NJ, United States Lat: 39.467
Local Time: 5:24 AM EST (10:24 GMT) Lon: -74.583
Time Zone: US/Eastern Elev: 75 ft

Show me the last for .
Show Decoded

2019-02-18 05:02 METAR KACY 181002Z 16004KT 2SM -RA BR BKN005 OVC009 05/05 A2977 RMK AO2 SFC VIS
                 5 P0001 T00500050 $ =
2019-02-18 04:54 METAR KACY 180954Z 00000KT 2SM RA BR OVC004 05/05 A2977 RMK AO2 SFC VIS 4 SLP082
                 P0011 T00500050 $ =
2019-02-18 03:54 METAR KACY 180854Z 16008KT 2SM -RA BR OVC003 05/05 A2978 RMK AO2 SFC VIS 6
                 SLP084 P0007 60015 T00500050 56043 $ =
2019-02-18 03:09 METAR KACY 180809Z 16008KT 2SM -RA BR OVC003 04/04 A2981 RMK AO2 SFC VIS 6 P0001
                 T00440044 $ =
2019-02-18 02:54 METAR KACY 180754Z 15006KT 3SM -RA OVC004 04/04 A2981 RMK AO2 SFC VIS 7 PRESFR
                 SLP096 P0003 T00440044 $ =
2019-02-18 02:33 METAR KACY 180733Z VRB03KT 3SM -RA OVC004 04/04 A2985 RMK AO2 SFC VIS 9 P0002
                 T00440044 $ =
2019-02-18 01:54 METAR KACY 180654Z 14008KT 3SM RA BR OVC005 04/04 A2986 RMK AO2 SFC VIS 5 SLP110
                 P0005 T00440044 $ =
2019-02-18 01:30 METAR KACY 180630Z 29007G24KT 3SM -RA BKN003 BKN055 OVC070 04/04 A2989 RMK AO2
                 SFC VIS 7 PRESRR P0004 T00390039 $ =
2019-02-18 01:22 METAR KACY 180622Z 15013G24KT 3SM -RA BR SCT003 BKN010 OVC070 04/04 A2982 RMK
                 AO2 SFC VIS 5 P0003 T00390039 $ =
2019-02-18 00:54 METAR KACY 180554Z 18005KT 3SM -RA BR BKN009 OVC014 04/04 A2990 RMK AO2 SFC VIS
                 5 SLP127 P0006 60024 T00390039 10039 20017 58022 $ =
2019-02-18 00:06 METAR KACY 180506Z 00000KT 3SM -RA BR BKN005 BKN028 OVC070 03/03 A2992 RMK AO2
                 SFC VIS 5 P0001 T00330033 $ =
2019-02-18 00:01 METAR KACY 180501Z 33003KT 3SM -RA BR SCT005 SCT030 OVC075 03/03 A2993 =
2019-02-17 23:54 METAR KACY 180454Z 19003KT 3SM -RA BR BKN005 OVC080 03/03 A2992 RMK AO2 SFC VIS
                 5 SLP131 P0009 T00330033 400331056 $ =
2019-02-17 23:38 METAR KACY 180438Z 14007KT 1SM -RA BR SCT010 SCT050 OVC075 03/03 A2991 =
2019-02-17 23:03 METAR KACY 180403Z 33005KT 4SM RA BR BKN010 BKN016 OVC022 03/02 A2997 RMK AO2
                 P0003 T00280022 =
2019-02-17 22:54 METAR KACY 180354Z 34005KT 4SM RA BR SCT012 BKN021 OVC033 03/02 A2997 RMK AO2
                 SLP150 P0005 T00280022 =
2019-02-17 21:54 METAR KACY 180254Z 11005KT 7SM -RA OVC037 03/02 A2995 RMK AO2 UPB02E19RAB19
                 PRESFR SLP141 P0003 60004 T00280022 56031 =
2019-02-17 20:54 METAR KACY 180154Z AUTO 12004KT 10SM BKN037 OVC070 02/02 A2998 RMK AO2
                 RAE0057UPB0057E05 SLP152 P0000 T00220017 =
2019-02-17 19:54 METAR KACY 180054Z AUTO 12006KT 8SM -RA FEW038 SCT070 OVC095 02/01 A3000 RMK AO2
                 UPB02E20B44E47RAB47 SLP158 P0001 T00220006 =
2019-02-17 18:54 METAR KACY 172354Z AUTO 12007KT 10SM OVC045 02/M01 A3004 RMK AO2 PRESFR SLP173
                 T00221011 10028 20022 58001 =
2019-02-17 17:54 METAR KACY 172254Z AUTO 13004KT 10SM OVC048 02/M02 A3006 RMK AO2 SLP179
                 T00221017 =
2019-02-17 16:54 METAR KACY 172154Z AUTO 15006KT 10SM OVC050 02/M03 A3006 RMK AO2 SLP178
                 T00221028 =
2019-02-17 15:54 METAR KACY 172054Z 13008KT 10SM OVC055 02/M03 A3004 RMK AO2 SLP174 T00221028
                 58025 =
2019-02-17 14:54 METAR KACY 171954Z 13006KT 10SM FEW070 02/M03 A3008 RMK AO2 SLP185 T00221028 =
2019-02-17 14:33 METAR KACY 171933Z 09008KT 10SM FEW029 02/M03 A3007 RMK AO2 PRESFR T00221028 =
2019-02-17 14:01 METAR KACY 171901Z 10SM BKN026 03/M03 A3014 =
2019-02-17 13:54 METAR KACY 171854Z 08003KT 10SM SCT026 02/M03 A3014 RMK AO2 SLP206 T00221028 =
2019-02-17 12:54 METAR KACY 171754Z VRB06KT 10SM FEW027 03/M03 A3012 RMK AO2 SLP199 T00281033
                 10033 21028 58005 =
2019-02-17 12:52 METAR KACY 171752Z 12004KT 10SM SCT027 03/M03 A3011 RMK AO2 =
2019-02-17 12:44 METAR KACY 171744Z 12005KT 10SM BKN027 03/M03 A3012 RMK AO2 T00281033 =
2019-02-17 12:08 METAR KACY 171708Z 15005KT 10SM SCT026 03/M03 A3015 RMK AO2 T00331028 =
2019-02-17 11:54 METAR KACY 171654Z 15006KT 10SM BKN026 03/M03 A3016 RMK AO2 SLP213 T00281028 =
2019-02-17 10:54 METAR KACY 171554Z 06009KT 10SM CLR 03/M04 A3013 RMK AO2 PRESFR SLP204 T00281039
                 =
2019-02-17 09:54 METAR KACY 171454Z 09009KT 10SM CLR 02/M04 A3014 RMK AO2 SLP208 T00221044 50009
                 =
2019-02-17 08:54 METAR KACY 171354Z 03006KT 10SM CLR M01/M07 A3015 RMK AO2 SLP209 T10061067 =
2019-02-17 07:54 METAR KACY 171254Z 35006KT 10SM CLR M02/M07 A3016 RMK AO2 SLP212 T10221067 =
2019-02-17 06:54 METAR KACY 171154Z 34006KT 10SM CLR M05/M08 A3012 RMK AO2 SLP199 T10501083 11017
                 21056 53019 =
2019-02-17 05:54 METAR KACY 171054Z AUTO 35004KT 10SM CLR M05/M09 A3008 RMK AO2 SLP185 T10501089
                 =

Support USWX by starting your Amazon purchase here.